Time;durP1;ratioP1;P1;durP2;ratioP2;P2;SDS_P1;SDS_P2;PMS_P1;PMS_P2;Temp;Humidity;BMP_temperature;BMP_pressure;BME280_temperature;BME280_humidity;BME280_pressure;Samples;Min_cycle;Max_cycle;Signal;HPM_P1;HPM_P2
2021/10/27 00:01:45;;;;;;;10.37;3.50;;;8.70;99.90;;;9.58;100.00;98989.72;4976974;28;20554;-74
2021/10/27 00:04:14;;;;;;;8.87;3.60;;;8.80;99.90;;;9.59;100.00;98994.00;4972439;28;20995;-74
2021/10/27 00:06:43;;;;;;;4.00;2.87;;;8.80;99.90;;;9.60;100.00;98993.84;4983975;28;20795;-74
2021/10/27 00:09:11;;;;;;;7.73;3.97;;;8.70;99.90;;;9.61;100.00;98989.44;4983157;28;20471;-74
2021/10/27 00:11:41;;;;;;;9.63;3.03;;;8.80;99.90;;;9.63;100.00;98991.88;4982393;28;20511;-74
2021/10/27 00:14:11;;;;;;;8.10;3.73;;;8.80;99.90;;;9.64;100.00;98998.75;4984643;28;20943;-74
2021/10/27 00:16:39;;;;;;;5.97;3.60;;;8.80;99.90;;;9.65;100.00;98992.56;4982525;28;20520;-74
2021/10/27 00:19:08;;;;;;;5.40;3.87;;;8.90;99.90;;;9.68;100.00;98994.84;4982682;28;20559;-75
2021/10/27 00:21:37;;;;;;;8.23;4.00;;;8.90;99.90;;;9.71;100.00;98999.75;4982844;28;20582;-74
2021/10/27 00:24:05;;;;;;;7.37;4.03;;;8.90;99.90;;;9.71;100.00;99004.97;4981475;28;20496;-74
2021/10/27 00:26:34;;;;;;;6.53;4.07;;;8.80;99.90;;;9.71;100.00;99000.59;4986299;28;20456;-74
2021/10/27 00:29:04;;;;;;;6.90;4.33;;;8.90;99.90;;;9.73;100.00;98998.63;4984934;28;20538;-74
2021/10/27 00:31:32;;;;;;;12.73;4.07;;;8.90;99.90;;;9.74;100.00;98999.44;4976282;28;20477;-74
2021/10/27 00:34:01;;;;;;;5.97;3.70;;;8.90;99.90;;;9.76;100.00;98993.06;4978845;28;20464;-74
2021/10/27 00:36:29;;;;;;;5.87;3.70;;;8.90;99.90;;;9.77;100.00;98993.91;4982583;28;20670;-74
2021/10/27 00:38:58;;;;;;;4.90;3.60;;;9.00;99.90;;;9.79;100.00;98991.97;4985508;28;20464;-74
2021/10/27 00:41:26;;;;;;;8.37;4.03;;;9.00;99.90;;;9.80;100.00;98990.97;4975185;28;20523;-74
2021/10/27 00:43:55;;;;;;;7.40;4.03;;;9.00;99.90;;;9.82;100.00;98995.03;4981186;28;20538;-74
2021/10/27 00:46:26;;;;;;;6.73;3.90;;;9.00;99.90;;;9.84;100.00;98995.72;4981272;28;20940;-74
2021/10/27 00:48:55;;;;;;;8.50;5.00;;;9.10;99.90;;;9.89;100.00;99003.09;4977845;28;20441;-74
2021/10/27 00:51:23;;;;;;;14.73;6.30;;;9.10;99.90;;;9.94;100.00;99000.81;4984905;28;20487;-74
2021/10/27 00:53:52;;;;;;;13.80;3.60;;;9.20;99.90;;;9.96;100.00;99002.28;4988109;28;20502;-74
2021/10/27 00:56:21;;;;;;;9.33;4.47;;;9.20;99.90;;;9.99;100.00;99006.38;4982010;28;20459;-74
2021/10/27 00:58:50;;;;;;;5.43;4.23;;;9.30;99.90;;;10.01;100.00;99007.03;4980598;28;20472;-74
2021/10/27 01:01:19;;;;;;;5.77;3.93;;;9.20;99.90;;;10.01;100.00;99007.03;4980771;28;21008;-74
2021/10/27 01:03:49;;;;;;;5.33;3.90;;;9.20;99.90;;;10.04;100.00;99009.31;4982320;28;20534;-74
2021/10/27 01:06:17;;;;;;;5.80;3.60;;;9.20;99.90;;;10.05;100.00;99006.56;4976948;28;20536;-74
2021/10/27 01:08:46;;;;;;;9.33;4.27;;;9.20;99.90;;;10.06;100.00;99004.75;4981077;28;20467;-74
2021/10/27 01:11:15;;;;;;;6.50;4.10;;;9.20;99.90;;;10.07;100.00;99001.16;4976176;28;20499;-74
2021/10/27 01:13:44;;;;;;;7.10;3.83;;;9.20;99.90;;;10.09;100.00;99013.09;4985613;28;20499;-74
2021/10/27 01:16:13;;;;;;;11.63;4.07;;;9.20;99.90;;;10.11;100.00;99003.28;4973819;28;20469;-74
2021/10/27 01:18:41;;;;;;;5.00;3.40;;;9.30;99.90;;;10.12;100.00;99004.13;4979344;28;20492;-74
2021/10/27 01:21:12;;;;;;;11.50;4.27;;;9.30;99.90;;;10.14;100.00;99007.41;4975522;28;20987;-74
2021/10/27 01:23:41;;;;;;;7.07;4.13;;;9.30;99.90;;;10.15;100.00;99001.22;4983817;28;20467;-74
2021/10/27 01:26:10;;;;;;;6.80;4.40;;;9.30;99.90;;;10.17;100.00;98999.25;4983096;28;20554;-75
2021/10/27 01:28:41;;;;;;;6.93;4.20;;;9.30;99.90;;;10.19;100.00;98999.91;4979307;28;20508;-74
2021/10/27 01:31:13;;;;;;;12.43;4.10;;;9.40;99.90;;;10.20;100.00;98993.72;4987884;28;20501;-74
2021/10/27 01:33:43;;;;;;;9.30;4.03;;;9.40;99.90;;;10.22;100.00;98993.53;4985240;28;20545;-74
2021/10/27 01:36:17;;;;;;;6.83;4.03;;;9.40;99.90;;;10.23;100.00;98996.00;4993055;28;21034;-74
2021/10/27 01:38:47;;;;;;;6.50;3.77;;;9.40;99.90;;;10.24;100.00;98991.59;4983191;28;20526;-74
2021/10/27 01:41:16;;;;;;;10.50;4.23;;;9.40;99.90;;;10.25;100.00;98993.22;4992279;28;20501;-74
2021/10/27 01:43:51;;;;;;;7.90;4.23;;;9.40;99.90;;;10.27;100.00;98996.50;4975047;28;20584;-74
2021/10/27 01:46:29;;;;;;;13.23;4.73;;;9.50;99.90;;;10.29;100.00;98999.75;4982937;28;20475;-74
2021/10/27 01:48:58;;;;;;;6.87;4.00;;;9.40;99.90;;;10.30;100.00;98994.38;4984757;28;20893;-74
2021/10/27 01:51:29;;;;;;;4.10;3.57;;;9.40;99.90;;;10.32;100.00;98994.22;4984071;28;20510;-74
2021/10/27 01:53:58;;;;;;;6.10;3.87;;;9.50;99.90;;;10.32;100.00;98994.22;4986044;28;20548;-74
2021/10/27 01:56:28;;;;;;;7.57;3.73;;;9.50;99.90;;;10.33;100.00;98999.28;4988364;28;20597;-74
2021/10/27 01:58:57;;;;;;;11.23;3.80;;;9.50;99.90;;;10.35;100.00;98997.31;4986888;28;20972;-74
2021/10/27 02:01:26;;;;;;;7.57;3.80;;;9.50;99.90;;;10.36;100.00;99001.56;4984541;28;20460;-74
2021/10/27 02:03:54;;;;;;;7.77;3.90;;;9.50;99.90;;;10.39;100.00;99001.25;4987642;28;21033;-74
2021/10/27 02:06:23;;;;;;;6.23;3.20;;;9.60;99.90;;;10.41;100.00;98996.66;4981001;28;20631;-74
2021/10/27 02:08:53;;;;;;;8.23;3.37;;;9.60;99.90;;;10.42;100.00;98998.31;4990650;28;20514;-74
2021/10/27 02:11:21;;;;;;;4.80;3.87;;;9.60;99.90;;;10.43;100.00;98997.34;4986161;28;20497;-74
2021/10/27 02:13:54;;;;;;;4.57;3.23;;;9.60;99.90;;;10.45;100.00;98997.97;4990016;28;20496;-74
2021/10/27 02:16:25;;;;;;;6.43;3.97;;;9.60;99.90;;;10.46;100.00;98996.19;4980938;28;20473;-74
2021/10/27 02:18:54;;;;;;;8.80;3.80;;;9.60;99.90;;;10.47;100.00;98990.81;4981702;28;20460;-74
2021/10/27 02:21:22;;;;;;;10.30;3.33;;;9.70;99.90;;;10.48;100.00;98997.66;4978428;28;20530;-74
2021/10/27 02:23:53;;;;;;;10.20;3.33;;;9.70;99.90;;;10.50;100.00;98987.84;4983192;28;20563;-74
2021/10/27 02:26:22;;;;;;;14.10;4.07;;;9.70;99.90;;;10.51;100.00;98989.50;4980626;28;20542;-74
2021/10/27 02:28:51;;;;;;;14.10;4.00;;;9.70;99.90;;;10.52;100.00;98985.88;4982111;28;20492;-75
2021/10/27 02:31:20;;;;;;;6.23;3.47;;;9.70;99.90;;;10.54;100.00;98989.16;4983367;28;20551;-74
2021/10/27 02:33:49;;;;;;;6.43;3.93;;;9.80;99.90;;;10.54;100.00;98989.16;4983465;28;20457;-74
2021/10/27 02:36:18;;;;;;;11.53;4.83;;;9.80;99.90;;;10.56;100.00;98983.75;4982216;28;20456;-74
2021/10/27 02:38:46;;;;;;;22.20;4.60;;;9.80;99.90;;;10.57;100.00;98983.63;4982866;28;20953;-74
2021/10/27 02:41:17;;;;;;;8.53;3.90;;;9.80;99.90;;;10.58;100.00;98984.44;4978727;28;20523;-74
2021/10/27 02:43:46;;;;;;;10.10;4.50;;;9.80;99.90;;;10.58;100.00;98980.03;4987336;28;20499;-74
2021/10/27 02:46:14;;;;;;;6.27;4.43;;;9.80;99.90;;;10.60;100.00;98983.28;4980740;28;20496;-74
2021/10/27 02:48:43;;;;;;;8.53;4.33;;;9.90;99.90;;;10.62;100.00;98974.47;4982455;28;20487;-74
2021/10/27 02:51:12;;;;;;;8.37;4.07;;;9.90;99.90;;;10.64;100.00;98977.72;4979437;28;20484;-74
2021/10/27 02:53:41;;;;;;;9.30;4.80;;;9.90;99.90;;;10.64;100.00;98977.72;4978995;28;20456;-73
2021/10/27 02:56:09;;;;;;;17.40;5.63;;;9.90;99.90;;;10.66;100.00;98980.97;4979290;28;20502;-74
2021/10/27 02:58:39;;;;;;;12.80;5.10;;;9.90;99.90;;;10.67;100.00;98993.06;4980602;28;20502;-74
2021/10/27 03:01:08;;;;;;;8.40;4.73;;;9.90;99.90;;;10.68;100.00;98985.09;4983859;28;20495;-74
2021/10/27 03:03:37;;;;;;;12.50;5.23;;;10.00;99.90;;;10.69;100.00;98986.69;4984737;28;20503;-74
2021/10/27 03:06:06;;;;;;;13.70;5.50;;;10.00;99.90;;;10.71;100.00;98989.97;4983609;28;20824;-74
2021/10/27 03:08:34;;;;;;;6.77;4.20;;;10.00;99.90;;;10.74;100.00;98996.69;4982187;28;20534;-74
2021/10/27 03:11:03;;;;;;;15.23;5.23;;;10.00;99.90;;;10.74;100.00;98984.41;4986111;28;20471;-73
2021/10/27 03:13:32;;;;;;;11.17;5.40;;;10.00;99.90;;;10.75;100.00;98991.28;4981614;28;20976;-74
2021/10/27 03:16:01;;;;;;;11.20;5.33;;;10.10;99.90;;;10.76;100.00;98997.34;4979638;28;20505;-73
2021/10/27 03:18:30;;;;;;;15.90;5.50;;;10.10;99.90;;;10.76;100.00;98998.13;4977698;28;20468;-73
2021/10/27 03:20:59;;;;;;;13.83;5.80;;;10.10;99.90;;;10.79;100.00;99002.25;4983874;28;20503;-73
2021/10/27 03:23:27;;;;;;;8.43;4.53;;;10.10;99.90;;;10.80;100.00;99001.25;4987953;28;20535;-73
2021/10/27 03:25:56;;;;;;;10.73;5.83;;;10.10;99.90;;;10.79;100.00;98997.84;4983832;28;20965;-73
2021/10/27 03:28:25;;;;;;;16.80;5.93;;;10.10;99.90;;;10.80;100.00;98999.44;4985713;28;20499;-73
2021/10/27 03:30:53;;;;;;;9.50;4.33;;;10.10;99.90;;;10.83;100.00;99004.34;4981720;28;20516;-74
2021/10/27 03:33:23;;;;;;;13.40;4.50;;;10.00;99.90;;;10.84;100.00;98995.53;4979533;28;20520;-74
2021/10/27 03:35:51;;;;;;;10.20;5.03;;;10.10;99.90;;;10.84;100.00;99000.75;4975634;28;20488;-73
2021/10/27 03:38:20;;;;;;;8.03;5.77;;;10.10;99.90;;;10.84;100.00;99007.78;4968604;28;20460;-73
2021/10/27 03:40:49;;;;;;;14.30;8.83;;;10.10;99.90;;;10.83;100.00;99009.56;4982624;28;21053;-72
2021/10/27 03:43:19;;;;;;;9.93;6.70;;;10.10;99.90;;;10.85;100.00;99012.03;4983458;28;21094;-73
2021/10/27 03:45:47;;;;;;;10.67;5.00;;;10.10;99.90;;;10.87;100.00;99005.66;4971258;28;20957;-74
2021/10/27 03:48:16;;;;;;;7.20;5.33;;;10.10;99.90;;;10.88;100.00;99006.47;4981361;28;20456;-74
2021/10/27 03:50:46;;;;;;;12.63;7.37;;;10.10;99.90;;;10.86;100.00;99004.03;4982086;28;20469;-75
2021/10/27 03:53:14;;;;;;;13.07;7.47;;;10.10;99.90;;;10.88;100.00;99006.47;4980694;28;20460;-75
2021/10/27 03:55:43;;;;;;;17.90;8.23;;;10.20;99.90;;;10.87;100.00;99010.06;4985401;28;20451;-75
2021/10/27 03:58:12;;;;;;;17.90;8.70;;;10.10;99.90;;;10.85;100.00;99017.28;4985589;28;20440;-74
2021/10/27 04:00:41;;;;;;;21.80;9.17;;;10.10;99.90;;;10.87;100.00;99026.59;4983481;28;20456;-75
2021/10/27 04:03:11;;;;;;;17.47;8.57;;;10.10;99.90;;;10.87;100.00;99020.53;4986318;28;20555;-73
2021/10/27 04:05:40;;;;;;;14.77;9.50;;;10.10;99.90;;;10.88;100.00;99022.19;4971430;28;20999;-72
2021/10/27 04:08:09;;;;;;;17.77;10.43;;;10.20;99.90;;;10.86;100.00;99027.59;4988266;28;20455;-73
2021/10/27 04:10:38;;;;;;;18.07;9.40;;;10.10;99.90;;;10.87;100.00;99018.75;4980677;28;20456;-74
2021/10/27 04:13:06;;;;;;;18.37;9.40;;;10.20;99.90;;;10.91;100.00;99022.66;4989596;28;20460;-75
2021/10/27 04:15:35;;;;;;;16.73;9.43;;;10.20;99.90;;;10.89;100.00;99018.59;4989436;28;20510;-73
2021/10/27 04:18:04;;;;;;;27.23;14.93;;;10.20;99.90;;;10.87;100.00;99025.75;4987658;28;20491;-77
2021/10/27 04:20:33;;;;;;;20.60;10.47;;;10.20;99.90;;;10.90;100.00;99020.19;4978976;28;20476;-73
2021/10/27 04:23:01;;;;;;;17.60;8.57;;;10.20;99.90;;;10.90;100.00;99025.44;4984971;28;20494;-73
2021/10/27 04:25:31;;;;;;;14.80;9.20;;;10.20;99.90;;;10.90;100.00;99025.44;4986659;28;20472;-73
2021/10/27 04:28:00;;;;;;;158.47;84.80;;;10.20;99.90;;;10.92;100.00;99023.50;4984119;28;20579;-72
2021/10/27 04:30:29;;;;;;;22.10;10.93;;;10.20;99.90;;;10.91;100.00;99022.66;4983759;28;20503;-73
2021/10/27 04:32:57;;;;;;;18.60;9.07;;;10.20;99.90;;;10.93;100.00;99025.91;4988013;28;20464;-74
2021/10/27 04:35:26;;;;;;;13.57;8.60;;;10.20;99.90;;;10.94;100.00;99021.50;4985740;28;20511;-74
2021/10/27 04:37:55;;;;;;;19.73;8.63;;;10.20;99.90;;;10.96;100.00;99020.38;4988505;28;20475;-74
2021/10/27 04:40:23;;;;;;;15.70;8.47;;;10.20;99.90;;;10.97;100.00;99027.22;4982749;28;20452;-74
2021/10/27 04:42:53;;;;;;;20.37;8.53;;;10.20;99.90;;;10.99;100.00;99030.53;4987856;28;20457;-74
2021/10/27 04:45:22;;;;;;;13.60;7.30;;;10.20;99.90;;;11.00;100.00;99031.34;4991464;28;20546;-74
2021/10/27 04:47:50;;;;;;;12.20;7.90;;;10.20;99.90;;;11.00;100.00;99029.50;4990922;28;20476;-74
2021/10/27 04:50:19;;;;;;;16.27;8.70;;;10.20;99.90;;;11.00;100.00;99026.91;4988613;28;21019;-74
2021/10/27 04:52:48;;;;;;;13.30;8.53;;;10.30;99.90;;;11.01;100.00;99027.72;4991285;28;20471;-74
2021/10/27 04:55:17;;;;;;;14.30;7.40;;;10.20;99.90;;;11.00;100.00;99026.09;4984790;28;20455;-74
2021/10/27 04:57:46;;;;;;;21.00;8.33;;;10.20;99.90;;;11.01;100.00;99030.34;4987791;28;20504;-74
2021/10/27 05:00:17;;;;;;;16.57;8.73;;;10.20;99.90;;;11.01;100.00;99025.94;4984135;28;20448;-74
2021/10/27 05:02:46;;;;;;;13.90;8.47;;;10.20;99.90;;;11.02;100.00;99016.28;4991177;28;20507;-74
2021/10/27 05:05:14;;;;;;;15.40;9.33;;;10.30;99.90;;;11.02;100.00;99030.19;4980952;28;20503;-73
2021/10/27 05:07:44;;;;;;;16.60;8.20;;;10.20;99.90;;;11.01;100.00;99030.34;4989812;28;20463;-74
2021/10/27 05:10:13;;;;;;;19.47;8.30;;;10.20;99.90;;;11.01;100.00;99032.94;4984111;28;20521;-74
2021/10/27 05:12:41;;;;;;;17.23;9.07;;;10.20;99.90;;;11.00;100.00;99026.91;4981114;28;20448;-74
2021/10/27 05:15:10;;;;;;;14.57;7.60;;;10.20;99.90;;;11.02;100.00;99029.38;4977969;28;20937;-74
2021/10/27 05:17:40;;;;;;;21.83;9.30;;;10.20;99.90;;;11.03;100.00;99029.22;4977694;28;20523;-74
2021/10/27 05:20:09;;;;;;;17.73;8.40;;;10.20;99.90;;;11.03;100.00;99029.22;4991064;28;20475;-74
2021/10/27 05:22:38;;;;;;;16.87;8.70;;;10.20;99.90;;;11.03;100.00;99026.59;4985348;28;20471;-74
2021/10/27 05:25:08;;;;;;;12.97;7.73;;;10.20;99.90;;;11.04;100.00;99019.53;4991040;28;20498;-74
2021/10/27 05:27:37;;;;;;;21.83;9.03;;;10.30;99.90;;;11.04;100.00;99014.28;4990721;28;20979;-74
2021/10/27 05:30:07;;;;;;;24.47;8.53;;;10.30;99.90;;;11.04;100.00;99027.38;4989013;28;20456;-74
2021/10/27 05:32:36;;;;;;;21.80;9.10;;;10.30;99.90;;;11.04;100.00;99017.72;4987353;28;20509;-74
2021/10/27 05:35:07;;;;;;;16.23;8.60;;;10.30;99.90;;;11.04;100.00;99020.34;4982139;28;20498;-74
2021/10/27 05:37:35;;;;;;;14.07;8.73;;;10.30;99.90;;;11.04;100.00;99016.91;4980697;28;20448;-74
2021/10/27 05:40:05;;;;;;;17.43;9.73;;;10.30;99.90;;;11.04;100.00;99017.72;4981371;28;21026;-74
2021/10/27 05:42:34;;;;;;;21.10;11.50;;;10.20;99.90;;;11.05;100.00;99015.94;4986560;28;20483;-74
2021/10/27 05:45:05;;;;;;;15.47;8.87;;;10.20;99.90;;;11.05;100.00;99023.78;4990986;28;20495;-74
2021/10/27 05:47:33;;;;;;;17.27;9.23;;;10.20;99.90;;;11.06;100.00;99018.41;4988630;28;20460;-74
2021/10/27 05:50:22;;;;;;;18.03;9.73;;;10.20;99.90;;;11.06;100.00;99025.44;4991067;28;20472;-74
2021/10/27 05:55:38;;;;;;;25.30;8.17;;;10.20;99.90;;;11.04;100.00;99036.06;4989156;28;20514;-74
2021/10/27 05:58:08;;;;;;;15.23;8.57;;;10.20;99.90;;;11.04;100.00;99027.38;4990966;28;20444;-74
2021/10/27 06:00:39;;;;;;;17.10;9.80;;;10.20;99.90;;;11.05;100.00;99031.66;4986185;28;21004;-74
2021/10/27 06:03:07;;;;;;;30.07;11.03;;;10.30;99.90;;;11.07;100.00;99032.31;4979533;28;20447;-74
2021/10/27 06:05:37;;;;;;;16.77;10.20;;;10.30;99.90;;;11.07;100.00;99027.09;4984251;28;20550;-74
2021/10/27 06:08:08;;;;;;;17.13;8.50;;;10.30;99.90;;;11.09;100.00;99030.34;4977722;28;20519;-74
2021/10/27 06:10:37;;;;;;;17.20;9.97;;;10.30;99.90;;;11.10;100.00;99034.59;4987079;28;20467;-76
2021/10/27 06:13:06;;;;;;;23.87;11.87;;;10.30;99.90;;;11.11;100.00;99038.81;4990756;28;20940;-73
2021/10/27 06:15:36;;;;;;;20.93;11.47;;;10.30;99.90;;;11.11;100.00;99039.66;4990826;28;20451;-74
2021/10/27 06:18:05;;;;;;;23.93;11.70;;;10.30;99.90;;;11.12;100.00;99037.84;4989043;28;20514;-74
2021/10/27 06:20:33;;;;;;;24.90;11.93;;;10.40;99.90;;;11.12;100.00;99040.47;4998201;28;20509;-74
2021/10/27 06:23:02;;;;;;;23.93;10.23;;;10.40;99.90;;;11.13;100.00;99042.13;4989788;28;20479;-74
2021/10/27 06:25:32;;;;;;;24.57;11.73;;;10.40;99.90;;;11.13;100.00;99047.34;4994000;28;20499;-74
2021/10/27 06:28:05;;;;;;;22.00;8.97;;;10.40;99.90;;;11.13;100.00;99044.72;4990379;28;20519;-74
2021/10/27 06:30:43;;;;;;;29.73;11.50;;;10.40;99.90;;;11.14;100.00;99041.16;4983083;28;20625;-74
2021/10/27 06:33:24;;;;;;;18.23;9.23;;;10.40;99.90;;;11.14;100.00;99043.75;4981581;28;20531;-74
2021/10/27 06:35:57;;;;;;;25.70;10.33;;;10.40;99.90;;;11.16;100.00;99052.25;4989582;28;20455;-74
2021/10/27 06:38:34;;;;;;;23.90;10.23;;;10.30;99.90;;;11.16;100.00;99051.44;4990151;28;20455;-73
2021/10/27 06:46:51;;;;;;;25.30;11.50;;;10.40;99.90;;;11.17;100.00;99058.31;4907567;29;20479;-74
2021/10/27 06:49:22;;;;;;;23.33;11.73;;;10.40;99.90;;;11.19;100.00;99054.53;4906630;29;21015;-74
2021/10/27 06:51:51;;;;;;;28.37;12.40;;;10.50;99.90;;;11.20;100.00;99053.56;4941473;28;20868;-74
2021/10/27 06:54:20;;;;;;;30.50;11.60;;;10.40;99.90;;;11.21;100.00;99059.63;4986358;28;20868;-74
2021/10/27 06:56:50;;;;;;;26.40;12.03;;;10.40;99.90;;;11.22;100.00;99056.00;4985262;28;20455;-74
2021/10/27 06:59:26;;;;;;;18.13;10.30;;;10.40;99.90;;;11.23;100.00;99053.22;4992914;28;20499;-74
2021/10/27 07:02:30;;;;;;;19.70;11.13;;;10.40;99.90;;;11.24;100.00;99054.88;4989186;28;20529;-74
2021/10/27 07:16:14;;;;;;;21.20;11.87;;;10.60;99.90;;;11.29;100.00;99077.91;4983052;28;20511;-74
2021/10/27 07:18:42;;;;;;;22.60;11.27;;;10.60;99.90;;;11.25;100.00;99081.84;4982982;28;20460;-74
2021/10/27 07:21:12;;;;;;;20.60;10.77;;;10.50;99.90;;;11.20;100.00;99090.22;4991792;28;20468;-74
2021/10/27 07:23:43;;;;;;;22.97;11.30;;;10.40;99.90;;;11.18;100.00;99086.91;4989070;28;20781;-73
2021/10/27 07:26:12;;;;;;;20.07;10.87;;;10.40;99.90;;;11.21;100.00;99091.03;4986554;28;20534;-74
2021/10/27 07:28:44;;;;;;;24.97;11.13;;;10.50;99.90;;;11.23;100.00;99091.69;4979168;28;20456;-74
2021/10/27 07:31:15;;;;;;;24.23;11.37;;;10.50;99.90;;;11.24;100.00;99090.69;4991224;28;20507;-74
2021/10/27 07:33:50;;;;;;;19.97;9.67;;;10.60;99.90;;;11.25;100.00;99097.56;4987576;28;20452;-74
2021/10/27 07:36:30;;;;;;;26.40;11.27;;;10.60;99.90;;;11.26;100.00;99105.25;4980315;28;20530;-74
2021/10/27 07:41:45;;;;;;;22.97;9.57;;;10.50;99.90;;;11.16;100.00;99120.31;4980874;28;20836;-74
2021/10/27 07:44:16;;;;;;;20.33;10.90;;;10.40;99.90;;;11.18;100.00;99123.56;4992771;28;20448;-74
2021/10/27 07:46:46;;;;;;;22.47;10.20;;;10.40;99.90;;;11.10;100.00;99121.81;4984486;28;20527;-74
2021/10/27 07:49:15;;;;;;;21.40;9.70;;;10.30;99.90;;;11.09;100.00;99124.56;4990019;28;20487;-74
2021/10/27 07:51:43;;;;;;;24.80;10.07;;;10.30;99.90;;;11.11;100.00;99117.34;4992832;28;20511;-74
2021/10/27 07:54:15;;;;;;;19.20;10.03;;;10.40;99.90;;;11.17;100.00;99119.34;4992408;28;20527;-74
2021/10/27 07:56:44;;;;;;;18.03;9.30;;;10.60;99.90;;;11.19;100.00;99125.22;4992368;28;20448;-74
2021/10/27 07:59:15;;;;;;;22.53;9.10;;;10.70;99.90;;;11.19;100.00;99130.44;4992274;28;20459;-74
2021/10/27 08:01:44;;;;;;;20.23;9.97;;;10.50;99.90;;;11.21;100.00;99132.91;4984154;28;20506;-74
2021/10/27 08:04:13;;;;;;;16.07;8.90;;;10.50;99.90;;;11.14;100.00;99132.75;4979641;28;20457;-74
2021/10/27 08:06:41;;;;;;;14.33;7.70;;;10.40;99.90;;;11.11;100.00;99127.81;4989767;28;20542;-74
2021/10/27 08:09:10;;;;;;;16.97;9.00;;;10.30;99.90;;;11.10;100.00;99131.44;4991948;28;20506;-74
2021/10/27 08:11:38;;;;;;;21.77;9.47;;;10.30;99.90;;;11.17;100.00;99126.38;4982261;28;20463;-74
2021/10/27 08:14:07;;;;;;;19.00;8.00;;;10.50;99.90;;;11.12;100.00;99129.47;4985673;28;20510;-74
2021/10/27 08:16:37;;;;;;;23.77;9.43;;;10.40;99.90;;;11.11;100.00;99136.50;4986278;28;20492;-74
2021/10/27 08:19:05;;;;;;;18.40;8.63;;;10.40;99.90;;;11.16;100.00;99130.78;4981660;28;20524;-74
2021/10/27 08:21:35;;;;;;;18.53;9.37;;;10.40;99.90;;;11.17;100.00;99132.44;4988792;28;20514;-74
2021/10/27 08:24:04;;;;;;;21.37;8.63;;;10.40;99.90;;;11.17;100.00;99126.38;4984927;28;20471;-74
2021/10/27 08:26:33;;;;;;;18.70;8.80;;;10.40;99.90;;;11.13;100.00;99128.50;4981799;28;20500;-74
2021/10/27 08:29:11;;;;;;;13.50;7.07;;;10.40;99.90;;;11.08;100.00;99125.53;4982307;28;20840;-74
2021/10/27 08:31:43;;;;;;;16.80;7.60;;;10.30;99.90;;;11.07;100.00;99121.31;4995511;28;20995;-74
2021/10/27 08:34:15;;;;;;;16.63;6.90;;;10.30;99.90;;;11.04;100.00;99119.00;4990728;28;20806;-73
2021/10/27 08:36:44;;;;;;;17.90;7.73;;;10.20;99.90;;;11.05;100.00;99123.25;4982738;28;20513;-74
2021/10/27 08:39:14;;;;;;;11.43;6.03;;;10.20;99.90;;;11.05;100.00;99128.50;4991349;28;20892;-74
2021/10/27 08:41:47;;;;;;;16.27;6.93;;;10.20;99.90;;;11.13;100.00;99122.44;4990152;28;20562;-74
2021/10/27 08:44:15;;;;;;;16.37;6.87;;;10.40;99.90;;;11.11;100.00;99117.34;4988830;28;20488;-74
2021/10/27 08:46:47;;;;;;;16.07;6.83;;;10.40;99.90;;;11.12;100.00;99121.63;4979020;28;20499;-74
2021/10/27 08:49:18;;;;;;;13.80;6.40;;;10.40;99.90;;;11.14;100.00;99124.91;4975910;28;20544;-74
2021/10/27 08:51:50;;;;;;;11.37;5.90;;;10.30;99.90;;;11.17;100.00;99126.38;4986788;28;20475;-74
2021/10/27 08:54:18;;;;;;;10.60;5.60;;;10.40;99.90;;;11.20;100.00;99133.91;4982236;28;20448;-74
2021/10/27 08:56:47;;;;;;;12.60;7.07;;;10.40;99.90;;;11.20;100.00;99129.47;4985153;28;20451;-74
2021/10/27 08:59:20;;;;;;;11.23;6.37;;;10.40;99.90;;;11.24;100.00;99124.75;4989692;28;20488;-74
2021/10/27 09:02:00;;;;;;;13.50;6.20;;;10.40;99.90;;;11.25;100.00;99124.56;4978993;28;20473;-74
2021/10/27 09:04:39;;;;;;;9.53;5.90;;;10.40;99.90;;;11.19;100.00;99119.97;4983667;28;20536;-74
2021/10/27 09:07:25;;;;;;;9.70;5.63;;;10.40;99.90;;;11.20;100.00;99116.41;4989695;28;21004;-74
2021/10/27 09:15:54;;;;;;;14.40;6.87;;;10.40;99.90;;;11.30;100.00;99117.03;4989602;28;20452;-74
2021/10/27 09:36:04;;;;;;;13.17;6.23;;;10.70;99.90;;;11.50;100.00;99109.63;4977546;28;20445;-74
2021/10/27 09:41:41;;;;;;;13.07;6.70;;;10.70;99.90;;;11.57;100.00;99103.56;4986176;28;20512;-74
2021/10/27 10:04:28;;;;;;;8.70;5.50;;;11.10;99.90;;;11.92;100.00;99093.66;4946814;29;20570;-74
2021/10/27 10:07:03;;;;;;;12.00;6.13;;;11.20;99.90;;;12.00;100.00;99088.41;4978735;28;20896;-74
2021/10/27 10:09:38;;;;;;;10.67;5.83;;;11.30;99.90;;;11.98;100.00;99082.50;4985217;28;20830;-74
2021/10/27 10:12:08;;;;;;;9.30;6.37;;;11.30;99.90;;;12.04;100.00;99085.25;4991086;28;20482;-73
2021/10/27 10:14:39;;;;;;;12.07;5.87;;;11.30;99.90;;;12.07;100.00;99089.38;4991752;28;20524;-74
2021/10/27 10:17:09;;;;;;;19.07;8.17;;;11.40;99.90;;;12.06;100.00;99090.34;4990149;28;20455;-74
2021/10/27 10:19:41;;;;;;;12.97;6.67;;;11.30;99.90;;;12.09;100.00;99096.06;4985681;28;20452;-74
2021/10/27 10:22:28;;;;;;;11.07;6.50;;;11.40;99.90;;;12.15;100.00;99094.56;4994284;28;20459;-74
2021/10/27 10:25:34;;;;;;;11.97;5.27;;;11.40;99.90;;;12.10;100.00;99084.59;4993790;28;20444;-74
2021/10/27 10:28:19;;;;;;;12.80;6.80;;;11.40;99.90;;;12.10;100.00;99086.41;4994267;28;20499;-74
2021/10/27 10:30:54;;;;;;;11.00;6.33;;;11.40;99.90;;;12.08;100.00;99085.72;4994070;28;20506;-74
2021/10/27 10:33:40;;;;;;;11.47;6.17;;;11.30;99.90;;;12.06;100.00;99082.47;4984041;28;20444;-74
2021/10/27 10:36:12;;;;;;;10.57;5.87;;;11.30;99.90;;;12.06;100.00;99085.09;4986000;28;20810;-74
2021/10/27 11:03:00;;;;;;;13.23;6.80;;;11.50;99.90;;;12.20;100.00;99084.38;4983570;28;20479;-74
2021/10/27 11:23:34;;;;;;;13.33;5.90;;;11.50;99.90;;;12.29;100.00;99067.59;4992146;28;20479;-73
2021/10/27 11:37:46;;;;;;;9.57;4.87;;;11.80;99.90;;;12.54;100.00;99055.16;4979440;28;20459;-74
2021/10/27 11:40:34;;;;;;;6.67;4.50;;;11.90;99.90;;;12.59;100.00;99043.16;4992596;28;20444;-74
2021/10/27 11:43:07;;;;;;;11.50;5.67;;;12.00;99.90;;;12.65;100.00;99043.44;4992336;28;20468;-74
2021/10/27 11:45:52;;;;;;;10.67;5.63;;;12.00;99.90;;;12.69;100.00;99032.41;4992311;28;20516;-74
2021/10/27 11:51:14;;;;;;;9.87;4.73;;;12.20;99.90;;;12.78;100.00;99041.03;4972664;28;21016;-74
2021/10/27 11:53:45;;;;;;;8.90;5.40;;;12.20;99.90;;;12.74;100.00;99035.31;4988051;28;20452;-74
2021/10/27 11:56:17;;;;;;;7.63;5.33;;;12.10;99.90;;;12.79;100.00;99029.56;4992591;28;20439;-74
2021/10/27 11:58:49;;;;;;;9.67;4.50;;;12.20;99.90;;;12.85;100.00;99032.28;4989426;28;20451;-73
2021/10/27 12:01:23;;;;;;;6.60;4.13;;;12.20;99.90;;;12.91;100.00;99020.28;4981691;28;20473;-74
2021/10/27 12:03:53;;;;;;;5.50;4.07;;;12.30;99.90;;;12.85;100.00;99018.34;4986193;28;20583;-74
2021/10/27 12:06:37;;;;;;;6.70;4.00;;;12.20;99.90;;;12.90;100.00;99008.13;4985090;28;20456;-73
2021/10/27 12:09:29;;;;;;;8.50;4.67;;;12.20;99.90;;;12.90;100.00;99010.75;4989591;28;20506;-74
2021/10/27 12:18:08;;;;;;;7.27;3.47;;;12.40;99.90;;;13.08;100.00;98979.75;4930606;29;20470;-74
2021/10/27 12:20:44;;;;;;;6.30;4.30;;;12.50;99.90;;;13.05;100.00;98974.84;4920021;29;20452;-74
2021/10/27 12:23:19;;;;;;;5.10;3.90;;;12.40;99.90;;;13.11;100.00;98976.78;4962098;28;20458;-74
2021/10/27 12:25:51;;;;;;;5.43;3.53;;;12.50;99.90;;;13.19;100.00;98975.88;4981854;28;20448;-74
2021/10/27 12:28:29;;;;;;;5.77;3.50;;;12.60;99.90;;;13.21;100.00;98972.06;4981196;28;20995;-74
2021/10/27 12:30:59;;;;;;;5.37;3.40;;;12.70;99.90;;;13.19;100.00;98968.00;4975760;28;20467;-74
2021/10/27 12:33:40;;;;;;;5.60;4.07;;;12.60;99.90;;;13.23;100.00;98967.44;4982155;28;20504;-74
2021/10/27 12:36:27;;;;;;;7.17;3.23;;;12.70;99.90;;;13.25;100.00;98962.84;4992096;28;20843;-73
2021/10/27 12:39:17;;;;;;;5.77;3.40;;;12.70;99.90;;;13.28;100.00;98953.78;4991416;28;20456;-74